Time;durP1;ratioP1;P1;durP2;ratioP2;P2;SDS_P1;SDS_P2;PMS_P1;PMS_P2;Temp;Humidity;BMP_temperature;BMP_pressure;BME280_temperature;BME280_humidity;BME280_pressure;Samples;Min_cycle;Max_cycle;Signal;HPM_P1;HPM_P2
2022/09/10 00:01:58;;;;;;;0.60;0.60;;;;;;;15.63;100.00;100090.84;4970321;28;20953;-76
2022/09/10 00:04:24;;;;;;;1.20;0.73;;;;;;;15.66;100.00;100097.72;4963982;28;20674;-75
2022/09/10 00:06:49;;;;;;;1.13;0.50;;;;;;;15.65;100.00;100083.84;4968654;28;20214;-77
2022/09/10 00:09:14;;;;;;;1.43;0.70;;;;;;;15.67;100.00;100095.06;4967789;28;20198;-76
2022/09/10 00:11:41;;;;;;;1.53;0.80;;;;;;;15.70;100.00;100099.31;4972528;28;20327;-76
2022/09/10 00:14:10;;;;;;;4.43;0.93;;;;;;;15.70;100.00;100105.41;4981464;28;20255;-76
2022/09/10 00:16:36;;;;;;;2.53;0.90;;;;;;;15.70;100.00;100100.19;4985855;28;20208;-77
2022/09/10 00:19:03;;;;;;;2.87;1.00;;;;;;;15.70;100.00;100101.94;4963769;28;20206;-74
2022/09/10 00:21:28;;;;;;;1.90;1.07;;;;;;;15.68;100.00;100096.78;4969585;28;20188;-76
2022/09/10 00:23:54;;;;;;;1.17;0.90;;;;;;;15.67;100.00;100100.28;4968310;28;20274;-75
2022/09/10 00:26:26;;;;;;;2.93;1.10;;;;;;;15.66;100.00;100106.41;4971740;28;20220;-76
2022/09/10 00:28:53;;;;;;;3.43;1.20;;;;;;;15.64;100.00;100105.59;4976093;28;20623;-77
2022/09/10 00:31:20;;;;;;;2.60;1.00;;;;;;;15.62;100.00;100103.97;4969018;28;20190;-74
2022/09/10 00:33:46;;;;;;;1.20;0.90;;;;;;;15.57;100.00;100098.91;4971751;28;20256;-76
2022/09/10 00:36:16;;;;;;;1.17;0.90;;;;;;;15.55;100.00;100104.13;4974100;28;20268;-77
2022/09/10 00:38:42;;;;;;;2.70;1.03;;;;;;;15.51;100.00;100096.47;4970849;28;20186;-76
2022/09/10 00:41:08;;;;;;;3.30;1.10;;;;;;;15.50;100.00;100103.44;4969867;28;20525;-75
2022/09/10 00:43:58;;;;;;;3.30;0.83;;;;;;;15.45;100.00;100100.13;4969807;28;20508;-75
2022/09/10 00:46:32;;;;;;;1.23;0.80;;;;;;;15.41;100.00;100093.31;4981838;28;20540;-76
2022/09/10 00:49:01;;;;;;;1.77;0.77;;;;;;;15.36;100.00;100084.78;4971964;28;20223;-76
2022/09/10 00:51:31;;;;;;;1.57;0.97;;;;;;;15.34;100.00;100089.22;4973377;28;20249;-77
2022/09/10 00:53:58;;;;;;;0.97;0.83;;;;;;;15.30;100.00;100084.97;4970640;28;21164;-75
2022/09/10 00:56:23;;;;;;;1.20;0.77;;;;;;;15.27;100.00;100080.72;4967842;28;20313;-74
2022/09/10 00:58:49;;;;;;;1.20;0.83;;;;;;;15.23;100.00;100069.53;4973742;28;20198;-77
2022/09/10 01:01:18;;;;;;;1.37;0.77;;;;;;;15.23;100.00;100077.34;4970388;28;20221;-75
2022/09/10 01:03:44;;;;;;;2.13;0.93;;;;;;;15.21;100.00;100071.31;4968499;28;20636;-76
2022/09/10 01:06:10;;;;;;;3.33;1.07;;;;;;;15.19;100.00;100065.34;4970107;28;21074;-73
2022/09/10 01:08:35;;;;;;;1.60;0.90;;;;;;;15.19;100.00;100061.84;4973375;28;20619;-76
2022/09/10 01:11:41;;;;;;;2.17;1.20;;;;;;;15.20;100.00;100069.63;4972802;28;20193;-75
2022/09/10 01:14:25;;;;;;;1.37;0.80;;;;;;;15.22;100.00;100073.03;4965287;28;20193;-74
2022/09/10 01:17:03;;;;;;;2.30;0.90;;;;;;;15.18;100.00;100061.03;4968583;28;20229;-77
2022/09/10 01:19:46;;;;;;;2.47;0.83;;;;;;;15.16;100.00;100056.72;4963529;28;20566;-74
2022/09/10 01:22:31;;;;;;;2.30;1.00;;;;;;;15.14;100.00;100051.59;4983048;28;20199;-74
2022/09/10 01:25:14;;;;;;;1.27;0.97;;;;;;;15.14;100.00;100054.19;4967861;28;20225;-76
2022/09/10 01:27:44;;;;;;;2.73;1.00;;;;;;;15.12;100.00;100053.38;4967041;28;20223;-77
2022/09/10 01:30:16;;;;;;;1.40;0.97;;;;;;;15.10;100.00;100060.38;4972541;28;20615;-75
2022/09/10 01:33:00;;;;;;;2.33;0.80;;;;;;;15.06;100.00;100062.25;4971740;28;20184;-77
2022/09/10 01:36:11;;;;;;;1.13;0.90;;;;;;;15.03;100.00;100064.09;4970076;28;20196;-75
2022/09/10 01:38:40;;;;;;;1.83;0.90;;;;;;;15.00;100.00;100065.03;4931526;29;20221;-75
2022/09/10 01:41:06;;;;;;;1.73;0.73;;;;;;;14.97;100.00;100062.53;4946872;28;20202;-77
2022/09/10 01:43:32;;;;;;;1.03;0.70;;;;;;;14.96;100.00;100068.66;4957966;28;20435;-74
2022/09/10 01:46:09;;;;;;;1.13;0.70;;;;;;;14.98;100.00;100060.78;4968750;28;20648;-75
2022/09/10 01:48:56;;;;;;;1.13;0.67;;;;;;;14.96;100.00;100057.38;4969873;28;20217;-74
2022/09/10 01:51:59;;;;;;;0.97;0.87;;;;;;;14.96;100.00;100062.56;4969938;28;20197;-77
2022/09/10 01:54:36;;;;;;;3.67;0.90;;;;;;;14.95;100.00;100064.34;4963226;28;20191;-75
2022/09/10 01:57:30;;;;;;;1.10;0.67;;;;;;;14.93;100.00;100061.75;4965931;28;20646;-74
2022/09/10 02:00:09;;;;;;;1.10;0.70;;;;;;;14.94;100.00;100065.25;4968797;28;20207;-75
2022/09/10 02:03:04;;;;;;;1.93;0.70;;;;;;;14.94;100.00;100066.06;4970173;28;20248;-76
2022/09/10 02:05:34;;;;;;;0.90;0.83;;;;;;;14.96;100.00;100065.19;4963386;28;20239;-75
2022/09/10 02:08:10;;;;;;;1.20;0.83;;;;;;;15.00;100.00;100069.41;4970845;28;20208;-75
2022/09/10 02:10:50;;;;;;;1.33;0.90;;;;;;;15.01;100.00;100058.91;4968531;28;20213;-73
2022/09/10 02:13:16;;;;;;;1.27;0.60;;;;;;;15.03;100.00;100072.75;4966577;28;20333;-75
2022/09/10 02:15:41;;;;;;;1.43;0.60;;;;;;;15.08;100.00;100067.41;4968463;28;20676;-75
2022/09/10 02:18:07;;;;;;;0.60;0.60;;;;;;;15.11;100.00;100067.31;4969008;28;20239;-74
2022/09/10 02:20:32;;;;;;;1.53;0.70;;;;;;;15.14;100.00;100067.22;4968481;28;20579;-75
2022/09/10 02:22:58;;;;;;;2.17;0.87;;;;;;;15.18;100.00;100068.84;4971076;28;20677;-74
2022/09/10 02:25:30;;;;;;;0.70;0.63;;;;;;;15.20;100.00;100063.56;4981608;28;20585;-74
2022/09/10 02:27:56;;;;;;;2.03;0.80;;;;;;;15.20;100.00;100060.97;4990831;28;20212;-75
2022/09/10 02:30:23;;;;;;;2.70;0.90;;;;;;;15.22;100.00;100061.75;4969520;28;20185;-74
2022/09/10 02:32:49;;;;;;;0.90;0.70;;;;;;;15.22;100.00;100057.38;4969078;28;20192;-72
2022/09/10 02:35:16;;;;;;;0.73;0.57;;;;;;;15.22;100.00;100062.59;4964918;28;20186;-74
2022/09/10 02:37:42;;;;;;;0.63;0.60;;;;;;;15.24;100.00;100052.16;4969739;28;20217;-74
2022/09/10 02:40:09;;;;;;;1.57;0.70;;;;;;;15.23;100.00;100059.09;4966390;28;20186;-75
2022/09/10 02:42:34;;;;;;;1.70;0.80;;;;;;;15.24;100.00;100059.97;4968743;28;20189;-74
2022/09/10 02:45:00;;;;;;;1.37;0.70;;;;;;;15.26;100.00;100055.56;4966154;28;20791;-75
2022/09/10 02:47:25;;;;;;;1.27;0.70;;;;;;;15.30;100.00;100054.53;4965944;28;20299;-77
2022/09/10 02:49:51;;;;;;;0.90;0.60;;;;;;;15.32;100.00;100051.91;4963752;28;21034;-76
2022/09/10 02:52:16;;;;;;;0.60;0.60;;;;;;;15.32;100.00;100060.56;4966351;28;20536;-76
2022/09/10 02:54:41;;;;;;;1.50;0.80;;;;;;;15.34;100.00;100058.75;4967472;28;20198;-75
2022/09/10 02:57:07;;;;;;;0.60;0.60;;;;;;;15.34;100.00;100057.91;4966627;28;20214;-75
2022/09/10 02:59:32;;;;;;;1.03;0.63;;;;;;;15.32;100.00;100062.31;4968539;28;20394;-74
2022/09/10 03:01:58;;;;;;;1.20;0.67;;;;;;;15.30;100.00;100054.53;4968271;28;20192;-75
2022/09/10 03:04:23;;;;;;;2.00;0.70;;;;;;;15.30;100.00;100043.28;4967204;28;20204;-76
2022/09/10 03:06:50;;;;;;;1.33;0.50;;;;;;;15.28;100.00;100045.91;4967678;28;20223;-76
2022/09/10 03:09:16;;;;;;;1.60;0.87;;;;;;;15.23;100.00;100040.00;4968717;28;20190;-77
2022/09/10 03:11:41;;;;;;;1.10;0.60;;;;;;;15.19;100.00;100049.69;4984034;28;20281;-75
2022/09/10 03:14:09;;;;;;;0.90;0.60;;;;;;;15.19;100.00;100038.41;4968208;28;20206;-76
2022/09/10 03:16:34;;;;;;;0.80;0.70;;;;;;;15.19;100.00;100041.88;4970526;28;20307;-76
2022/09/10 03:18:59;;;;;;;0.80;0.50;;;;;;;15.18;100.00;100047.13;4969205;28;20342;-75
2022/09/10 03:21:25;;;;;;;0.87;0.70;;;;;;;15.16;100.00;100057.59;4967951;28;20528;-75
2022/09/10 03:23:52;;;;;;;0.73;0.60;;;;;;;15.16;100.00;100047.19;4967796;28;20186;-76
2022/09/10 03:26:20;;;;;;;0.80;0.50;;;;;;;15.17;100.00;100048.00;4965589;28;20209;-75
2022/09/10 03:28:46;;;;;;;1.50;0.60;;;;;;;15.15;100.00;100050.69;4967029;28;20578;-76
2022/09/10 03:31:12;;;;;;;1.30;0.60;;;;;;;15.15;100.00;100042.88;4965172;28;20201;-75
2022/09/10 03:33:38;;;;;;;0.70;0.67;;;;;;;15.15;100.00;100047.22;4968205;28;20197;-75
2022/09/10 03:36:04;;;;;;;1.87;0.70;;;;;;;15.17;100.00;100040.19;4964650;28;20212;-75
2022/09/10 03:38:29;;;;;;;1.37;0.90;;;;;;;15.19;100.00;100047.09;4964557;28;20305;-76
2022/09/10 03:40:55;;;;;;;2.10;0.73;;;;;;;15.18;100.00;100040.16;4968148;28;20284;-76
2022/09/10 03:43:21;;;;;;;1.70;0.63;;;;;;;15.19;100.00;100036.66;4968457;28;20189;-77
2022/09/10 03:45:50;;;;;;;0.77;0.70;;;;;;;15.19;100.00;100039.25;4970196;28;20365;-75
2022/09/10 03:48:17;;;;;;;1.50;0.80;;;;;;;15.20;100.00;100040.09;4971783;28;20574;-75
2022/09/10 03:50:43;;;;;;;3.20;0.73;;;;;;;15.20;100.00;100046.16;4970922;28;20670;-75
2022/09/10 03:53:13;;;;;;;0.70;0.60;;;;;;;15.22;100.00;100044.34;4967543;28;22089;-75
2022/09/10 03:55:42;;;;;;;2.17;0.67;;;;;;;15.27;100.00;100048.56;4970260;28;20778;-75
2022/09/10 03:58:07;;;;;;;1.23;0.80;;;;;;;15.28;100.00;100051.13;4970008;28;20205;-76
2022/09/10 04:00:33;;;;;;;1.57;0.80;;;;;;;15.31;100.00;100045.81;4965776;28;20205;-76
2022/09/10 04:02:59;;;;;;;0.73;0.73;;;;;;;15.31;100.00;100045.81;4967472;28;20185;-74
2022/09/10 04:05:26;;;;;;;1.93;0.80;;;;;;;15.33;100.00;100051.84;4966521;28;20642;-76
2022/09/10 04:07:53;;;;;;;0.60;0.60;;;;;;;15.35;100.00;100054.41;4970298;28;20206;-76
2022/09/10 04:10:21;;;;;;;0.70;0.70;;;;;;;15.37;100.00;100050.84;4973106;28;20185;-75
2022/09/10 04:12:52;;;;;;;0.90;0.60;;;;;;;15.41;100.00;100055.97;4966667;28;20194;-78
2022/09/10 04:15:18;;;;;;;0.93;0.60;;;;;;;15.43;100.00;100056.78;4968147;28;20217;-76
2022/09/10 04:17:45;;;;;;;1.27;0.73;;;;;;;15.45;100.00;100058.41;4965206;28;20670;-77
2022/09/10 04:20:11;;;;;;;1.30;0.57;;;;;;;15.46;100.00;100060.13;4974031;28;20203;-76
2022/09/10 04:22:36;;;;;;;1.43;0.80;;;;;;;15.48;100.00;100060.06;4966345;28;20305;-76
2022/09/10 04:25:01;;;;;;;1.03;0.70;;;;;;;15.48;100.00;100066.16;4972015;28;20225;-77
2022/09/10 04:27:27;;;;;;;2.30;0.73;;;;;;;15.51;100.00;100067.78;4963030;28;20215;-76
2022/09/10 04:29:52;;;;;;;2.13;0.70;;;;;;;15.51;100.00;100066.00;4969674;28;20190;-77
2022/09/10 04:32:18;;;;;;;1.27;0.90;;;;;;;15.51;100.00;100066.00;4965437;28;20259;-77
2022/09/10 04:34:43;;;;;;;1.43;0.80;;;;;;;15.52;100.00;100070.34;4972543;28;20279;-77
2022/09/10 04:37:09;;;;;;;1.27;0.70;;;;;;;15.53;100.00;100068.59;4965631;28;20716;-77
2022/09/10 04:39:35;;;;;;;0.63;0.63;;;;;;;15.53;100.00;100071.19;4968384;28;20194;-76
2022/09/10 04:42:01;;;;;;;0.67;0.67;;;;;;;15.56;100.00;100071.09;4952325;28;20193;-76
2022/09/10 04:44:28;;;;;;;1.00;0.70;;;;;;;15.56;100.00;100081.53;4971375;28;20196;-75
2022/09/10 04:46:53;;;;;;;1.53;0.80;;;;;;;15.58;100.00;100081.47;4965133;28;20669;-75
2022/09/10 04:49:19;;;;;;;0.70;0.60;;;;;;;15.60;100.00;100087.50;4969531;28;20185;-75
2022/09/10 04:51:44;;;;;;;0.80;0.60;;;;;;;15.59;100.00;100084.03;4969015;28;20692;-76
2022/09/10 04:54:12;;;;;;;1.20;1.00;;;;;;;15.62;100.00;100090.91;4970388;28;20196;-76
2022/09/10 04:56:37;;;;;;;1.87;0.70;;;;;;;15.63;100.00;100084.78;4969464;28;20605;-75
2022/09/10 04:59:03;;;;;;;1.57;0.73;;;;;;;15.65;100.00;100085.59;4987695;28;20180;-75
2022/09/10 05:01:28;;;;;;;1.17;0.80;;;;;;;15.67;100.00;100088.97;4968266;28;20650;-76
2022/09/10 05:03:53;;;;;;;2.07;0.90;;;;;;;15.66;100.00;100084.66;4969863;28;20698;-76
2022/09/10 05:06:19;;;;;;;1.60;0.90;;;;;;;15.64;100.00;100089.13;4973429;28;20292;-76
2022/09/10 05:08:44;;;;;;;0.73;0.73;;;;;;;15.63;100.00;100082.19;4970892;28;20186;-79
2022/09/10 05:11:10;;;;;;;1.73;0.83;;;;;;;15.62;100.00;100086.53;4971878;28;20193;-75
2022/09/10 05:13:35;;;;;;;0.87;0.60;;;;;;;15.62;100.00;100096.13;4970542;28;20556;-76
2022/09/10 05:16:01;;;;;;;1.90;0.87;;;;;;;15.62;100.00;100107.41;4968788;28;20190;-74
2022/09/10 05:18:26;;;;;;;1.77;0.70;;;;;;;15.64;100.00;100108.22;4969442;28;20571;-75
2022/09/10 05:20:52;;;;;;;1.23;0.80;;;;;;;15.66;100.00;100111.63;4974194;28;20244;-76
2022/09/10 05:23:18;;;;;;;2.73;0.90;;;;;;;15.67;100.00;100108.13;4966083;28;20194;-75
2022/09/10 05:25:43;;;;;;;1.60;1.17;;;;;;;15.68;100.00;100114.16;4970719;28;20217;-75
2022/09/10 05:28:09;;;;;;;0.90;0.80;;;;;;;15.67;100.00;100113.34;4970672;28;20759;-74
2022/09/10 05:30:35;;;;;;;1.37;0.93;;;;;;;15.68;100.00;100111.56;4977370;28;20248;-74
2022/09/10 05:33:01;;;;;;;1.63;1.10;;;;;;;15.67;100.00;100110.72;4978381;28;20189;-75
2022/09/10 05:35:27;;;;;;;1.63;0.80;;;;;;;15.68;100.00;100114.16;4964259;28;20740;-74
2022/09/10 05:37:55;;;;;;;1.80;0.80;;;;;;;15.68;100.00;100111.56;4965169;28;20216;-75
2022/09/10 05:40:21;;;;;;;1.63;1.00;;;;;;;15.67;100.00;100121.16;4969426;28;20725;-76
2022/09/10 05:42:46;;;;;;;1.57;1.10;;;;;;;15.68;100.00;100111.56;4971007;28;20689;-74
2022/09/10 05:45:12;;;;;;;0.80;0.70;;;;;;;15.69;100.00;100119.34;4973147;28;20279;-74
2022/09/10 05:47:37;;;;;;;1.47;0.80;;;;;;;15.71;100.00;100106.25;4977061;28;20327;-74
2022/09/10 05:50:04;;;;;;;1.70;1.20;;;;;;;15.72;100.00;100107.97;4983299;28;20197;-74
2022/09/10 05:52:29;;;;;;;1.00;0.90;;;;;;;15.69;100.00;100110.66;4977865;28;20285;-75
2022/09/10 05:54:55;;;;;;;1.87;0.90;;;;;;;15.74;100.00;100113.09;4979901;28;20642;-74
2022/09/10 05:57:20;;;;;;;1.80;1.07;;;;;;;15.73;100.00;100114.88;4977925;28;20208;-75
2022/09/10 05:59:46;;;;;;;2.80;1.00;;;;;;;15.74;100.00;100110.50;4978412;28;20205;-75
2022/09/10 06:02:16;;;;;;;2.00;1.10;;;;;;;15.75;100.00;100112.22;4977786;28;20611;-76
2022/09/10 06:04:41;;;;;;;1.87;0.90;;;;;;;15.74;100.00;100113.09;4974717;28;20678;-75
2022/09/10 06:07:07;;;;;;;2.57;1.33;;;;;;;15.76;100.00;100114.78;4970109;28;20245;-74
2022/09/10 06:09:33;;;;;;;1.63;0.80;;;;;;;15.78;100.00;100110.38;4970001;28;20196;-75
2022/09/10 06:11:58;;;;;;;1.43;0.90;;;;;;;15.82;100.00;100116.34;4969186;28;20201;-76
2022/09/10 06:14:23;;;;;;;3.00;1.00;;;;;;;15.85;100.00;100117.09;4963772;28;20275;-76
2022/09/10 06:16:50;;;;;;;2.17;1.00;;;;;;;15.90;100.00;100116.09;4968000;28;20599;-75
2022/09/10 06:19:16;;;;;;;1.47;1.10;;;;;;;15.93;100.00;100121.22;4980673;28;20729;-76
2022/09/10 06:21:41;;;;;;;1.47;0.90;;;;;;;15.95;100.00;100129.88;4970769;28;20328;-74
2022/09/10 06:24:07;;;;;;;1.87;0.90;;;;;;;16.02;100.00;100131.34;4968970;28;20281;-76
2022/09/10 06:26:33;;;;;;;3.07;1.00;;;;;;;16.05;100.00;100130.38;4969369;28;20226;-75
2022/09/10 06:28:58;;;;;;;1.90;0.80;;;;;;;16.06;100.00;100142.53;4980743;28;20271;-77
2022/09/10 06:31:24;;;;;;;1.70;0.90;;;;;;;16.04;100.00;100129.53;4965123;28;20542;-77
2022/09/10 06:33:49;;;;;;;1.50;0.80;;;;;;;16.02;100.00;100138.34;4968494;28;20197;-76
2022/09/10 06:36:14;;;;;;;1.47;0.87;;;;;;;16.02;100.00;100141.78;4966516;28;20232;-75
2022/09/10 06:38:40;;;;;;;1.10;0.80;;;;;;;16.05;100.00;100135.59;4966039;28;20580;-77
2022/09/10 06:41:10;;;;;;;1.53;1.00;;;;;;;16.09;100.00;100138.06;4966610;28;20558;-76
2022/09/10 06:43:37;;;;;;;1.47;1.10;;;;;;;16.19;100.00;100138.59;4968680;28;20666;-78
2022/09/10 06:46:12;;;;;;;1.20;1.10;;;;;;;16.26;100.00;100147.09;4970185;28;20218;-77
2022/09/10 06:48:43;;;;;;;1.67;0.80;;;;;;;16.31;100.00;100147.75;4969103;28;20185;-77
2022/09/10 06:51:13;;;;;;;1.53;0.97;;;;;;;16.36;100.00;100145.84;4966318;28;20241;-79
2022/09/10 06:53:40;;;;;;;1.37;0.83;;;;;;;16.41;100.00;100149.13;4968427;28;20251;-76
2022/09/10 06:56:08;;;;;;;1.17;0.70;;;;;;;16.51;100.00;100154.03;4967162;28;20644;-78
2022/09/10 06:58:34;;;;;;;2.00;0.77;;;;;;;16.59;100.00;100162.44;4964320;28;20206;-77
2022/09/10 07:01:08;;;;;;;0.80;0.70;;;;;;;16.70;100.00;100165.53;4964525;28;20672;-78
2022/09/10 07:03:34;;;;;;;0.57;0.57;;;;;;;16.80;100.00;100157.34;4965368;28;20237;-76
2022/09/10 07:06:05;;;;;;;1.10;0.80;;;;;;;17.29;100.00;100162.50;4972685;28;20244;-77
2022/09/10 07:08:31;;;;;;;1.20;0.90;;;;;;;17.88;100.00;100165.41;4967729;28;20596;-76
2022/09/10 07:11:00;;;;;;;1.30;0.70;;;;;;;18.33;100.00;100168.78;4967260;28;20246;-77
2022/09/10 07:13:26;;;;;;;1.40;0.60;;;;;;;18.50;100.00;100171.53;4967846;28;20232;-76
2022/09/10 07:15:53;;;;;;;2.00;0.80;;;;;;;18.69;100.00;100171.56;4968756;28;20226;-76
2022/09/10 07:18:18;;;;;;;1.33;0.63;;;;;;;18.84;100.00;100172.63;4964526;28;20262;-76
2022/09/10 07:20:45;;;;;;;0.80;0.50;;;;;;;18.95;100.00;100166.94;4968804;28;20189;-76
2022/09/10 07:23:15;;;;;;;0.77;0.50;;;;;;;19.00;100.00;100170.22;4976984;28;20191;-78
2022/09/10 07:25:41;;;;;;;0.63;0.50;;;;;;;19.00;100.00;100164.97;4967764;28;20658;-78
2022/09/10 07:28:12;;;;;;;0.87;0.50;;;;;;;19.01;100.00;100171.91;4968056;28;20229;-78
2022/09/10 07:30:42;;;;;;;1.40;0.50;;;;;;;19.23;100.00;100172.69;4965423;28;20193;-77
2022/09/10 07:33:09;;;;;;;2.00;0.60;;;;;;;19.45;100.00;100173.34;4963503;28;20203;-77
2022/09/10 07:35:35;;;;;;;1.43;0.60;;;;;;;19.52;100.00;100184.41;4966949;28;20198;-75
2022/09/10 07:38:03;;;;;;;2.10;0.67;;;;;;;19.54;100.00;100179.09;4964547;28;20453;-76
2022/09/10 07:40:28;;;;;;;1.70;0.43;;;;;;;19.53;100.00;100183.47;4964883;28;20279;-78
2022/09/10 07:42:58;;;;;;;1.23;0.60;;;;;;;19.41;100.00;100182.31;4966421;28;20335;-76
2022/09/10 07:45:24;;;;;;;1.60;1.10;;;;;;;19.29;100.00;100188.97;4968507;28;20315;-76
2022/09/10 07:47:50;;;;;;;1.80;1.40;;;;;;;19.17;100.00;100190.41;4968882;28;20222;-77
2022/09/10 07:50:15;;;;;;;1.13;0.90;;;;;;;19.09;100.00;100186.44;4964913;28;20200;-76
2022/09/10 07:52:41;;;;;;;1.50;1.07;;;;;;;19.03;100.00;100195.44;4968123;28;20205;-76
2022/09/10 07:55:06;;;;;;;1.07;0.70;;;;;;;18.90;100.00;100192.50;4968292;28;20197;-77
2022/09/10 07:57:36;;;;;;;0.80;0.60;;;;;;;18.83;100.00;100189.28;4964470;28;20258;-76
2022/09/10 08:00:15;;;;;;;0.60;0.50;;;;;;;18.82;100.00;100195.47;4966619;28;20704;-75
2022/09/10 08:02:42;;;;;;;1.13;0.60;;;;;;;18.87;100.00;100197.88;4964877;28;20556;-76
2022/09/10 08:05:09;;;;;;;1.03;0.60;;;;;;;18.98;100.00;100193.03;4964949;28;20268;-75
2022/09/10 08:07:35;;;;;;;1.50;0.63;;;;;;;19.10;100.00;100193.38;4973611;28;20215;-76
2022/09/10 08:10:00;;;;;;;0.73;0.70;;;;;;;19.22;100.00;100200.66;4967754;28;20972;-77
2022/09/10 08:12:25;;;;;;;1.40;0.63;;;;;;;19.24;100.00;100195.38;4964901;28;20199;-77
2022/09/10 08:14:51;;;;;;;0.90;0.60;;;;;;;19.32;100.00;100193.22;4967095;28;20205;-79
2022/09/10 08:17:16;;;;;;;1.70;0.77;;;;;;;19.41;100.00;100198.06;4975233;28;20209;-76
2022/09/10 08:19:42;;;;;;;1.83;0.60;;;;;;;19.75;100.00;100201.66;4970004;28;20242;-76
2022/09/10 08:22:08;;;;;;;1.33;0.50;;;;;;;20.13;100.00;100195.47;4972703;28;20591;-78
2022/09/10 08:24:33;;;;;;;1.47;0.70;;;;;;;20.49;100.00;100201.56;4972072;28;20204;-76
2022/09/10 08:26:58;;;;;;;2.17;0.70;;;;;;;20.65;100.00;100198.97;4967323;28;20678;-75
2022/09/10 08:29:23;;;;;;;0.93;0.57;;;;;;;20.68;99.11;100202.28;4973252;28;20284;-74
2022/09/10 08:31:49;;;;;;;1.23;0.70;;;;;;;20.48;98.92;100208.59;4976281;28;20216;-72
2022/09/10 08:34:14;;;;;;;1.40;0.70;;;;;;;20.12;100.00;100214.78;4968068;28;20193;-74
2022/09/10 08:36:39;;;;;;;2.03;1.27;;;;;;;19.88;100.00;100220.34;4971126;28;20226;-75
2022/09/10 08:39:05;;;;;;;3.80;1.20;;;;;;;19.59;100.00;100234.81;4970180;28;20211;-72
2022/09/10 08:41:37;;;;;;;2.27;1.07;;;;;;;19.31;100.00;100237.00;4966802;28;20194;-73
2022/09/10 08:44:08;;;;;;;1.70;0.83;;;;;;;18.99;100.00;100228.81;4963007;28;20198;-74
2022/09/10 08:46:41;;;;;;;1.30;0.70;;;;;;;18.79;100.00;100232.31;4972698;28;20232;-76
2022/09/10 08:49:24;;;;;;;1.27;0.80;;;;;;;18.72;100.00;100230.84;4973734;28;20196;-75
2022/09/10 08:51:55;;;;;;;1.43;1.00;;;;;;;18.68;100.00;100229.31;4968202;28;20190;-75
2022/09/10 08:54:33;;;;;;;1.27;0.70;;;;;;;18.76;100.00;100235.06;4967627;28;20197;-74
2022/09/10 08:57:00;;;;;;;1.23;0.60;;;;;;;18.82;100.00;100233.94;4968440;28;20209;-76
2022/09/10 08:59:39;;;;;;;2.20;0.83;;;;;;;18.84;100.00;100242.59;4969932;28;20250;-72
2022/09/10 09:02:30;;;;;;;1.93;0.80;;;;;;;18.95;100.00;100242.16;4965485;28;20548;-74
2022/09/10 09:05:04;;;;;;;1.80;1.00;;;;;;;19.09;100.00;100231.00;4970762;28;20694;-73
2022/09/10 09:07:38;;;;;;;1.80;0.90;;;;;;;19.27;100.00;100232.81;4975750;28;20220;-75
2022/09/10 09:10:17;;;;;;;1.90;1.03;;;;;;;19.52;100.00;100226.38;4969769;28;20200;-74
2022/09/10 09:12:56;;;;;;;1.97;0.90;;;;;;;19.89;100.00;100218.56;4970700;28;20279;-74
2022/09/10 09:15:30;;;;;;;2.23;1.10;;;;;;;20.21;100.00;100227.47;4969544;28;20197;-75
2022/09/10 09:18:07;;;;;;;2.40;0.90;;;;;;;20.37;100.00;100218.81;4972254;28;20221;-77
2022/09/10 09:20:41;;;;;;;2.43;0.83;;;;;;;20.39;100.00;100228.31;4977733;28;20230;-76
2022/09/10 09:23:31;;;;;;;2.07;1.10;;;;;;;20.37;100.00;100238.03;4967762;28;20555;-72
2022/09/10 09:26:08;;;;;;;3.03;1.00;;;;;;;20.46;100.00;100249.03;4968086;28;20327;-71
2022/09/10 09:28:42;;;;;;;1.77;0.90;;;;;;;20.59;100.00;100239.59;4964793;28;20209;-73
2022/09/10 09:31:15;;;;;;;2.07;0.90;;;;;;;20.75;100.00;100237.03;4965543;28;20190;-74
2022/09/10 09:33:41;;;;;;;2.60;0.87;;;;;;;20.95;100.00;100235.97;4965393;28;20244;-73
2022/09/10 09:36:15;;;;;;;1.77;0.93;;;;;;;21.25;100.00;100229.16;4965642;28;20198;-74
2022/09/10 09:38:46;;;;;;;2.80;1.10;;;;;;;21.63;100.00;100228.81;4965783;28;20277;-73
2022/09/10 09:41:24;;;;;;;1.73;0.90;;;;;;;22.07;99.33;100224.59;4968459;28;20281;-73
2022/09/10 09:44:13;;;;;;;1.27;0.70;;;;;;;22.47;97.79;100221.41;4973075;28;20185;-74
2022/09/10 09:46:39;;;;;;;1.77;0.87;;;;;;;22.67;95.29;100205.25;4965839;28;20264;-76
2022/09/10 09:49:10;;;;;;;1.30;0.70;;;;;;;22.74;95.57;100207.50;4967640;28;20218;-73
2022/09/10 09:51:35;;;;;;;2.33;1.23;;;;;;;22.92;94.54;100216.06;4964227;28;20658;-78
2022/09/10 09:54:14;;;;;;;1.53;0.93;;;;;;;22.93;92.71;100212.47;4978808;28;20235;-74
2022/09/10 09:56:48;;;;;;;0.60;0.60;;;;;;;22.88;94.00;100198.75;4964582;28;20201;-76
2022/09/10 09:59:33;;;;;;;2.07;0.73;;;;;;;22.89;93.81;100203.91;4965910;28;20606;-75
2022/09/10 10:02:20;;;;;;;2.23;1.10;;;;;;;22.58;92.57;100208.44;4964347;28;20198;-73
2022/09/10 10:04:58;;;;;;;2.03;0.80;;;;;;;22.13;93.80;100211.06;4965407;28;20197;-73
2022/09/10 10:07:30;;;;;;;2.83;0.77;;;;;;;21.74;94.28;100197.47;4970191;28;20221;-74
2022/09/10 10:09:59;;;;;;;1.50;0.80;;;;;;;21.32;96.54;100191.03;4968072;28;20670;-75
2022/09/10 10:12:26;;;;;;;2.33;0.90;;;;;;;21.02;98.79;100199.69;4967311;28;20214;-73
2022/09/10 10:14:51;;;;;;;2.20;0.97;;;;;;;;;;4966477;28;20186;-73
2022/09/10 10:17:29;;;;;;;1.97;0.73;;;;;;;20.86;100.00;100189.13;4960778;28;20220;-73
2022/09/10 10:20:01;;;;;;;2.93;0.70;;;;;;;20.84;99.90;100186.59;4969098;28;20193;-76
2022/09/10 10:22:31;;;;;;;1.10;0.77;;;;;;;20.89;99.27;100193.38;4965623;28;20276;-75
2022/09/10 10:24:59;;;;;;;1.73;0.90;;;;;;;21.12;99.30;100186.84;4966978;28;20245;-73
2022/09/10 10:27:31;;;;;;;2.10;1.07;;;;;;;21.39;98.20;100194.19;4970120;28;20256;-74
2022/09/10 10:30:06;;;;;;;1.93;0.97;;;;;;;21.58;97.23;100194.81;4976682;28;20191;-74
2022/09/10 10:32:32;;;;;;;2.33;0.90;;;;;;;21.66;95.91;100193.59;4965146;28;20185;-74
2022/09/10 10:35:17;;;;;;;1.07;0.80;;;;;;;21.59;96.04;100182.53;4964868;28;20807;-74
2022/09/10 10:38:25;;;;;;;2.80;1.00;;;;;;;21.73;95.72;100184.38;4967435;28;20229;-74
2022/09/10 10:41:10;;;;;;;2.33;1.10;;;;;;;21.93;96.10;100188.53;4960268;28;20807;-76
2022/09/10 10:44:00;;;;;;;1.77;0.70;;;;;;;22.28;95.23;100193.47;4966963;28;20264;-73
2022/09/10 10:46:43;;;;;;;2.10;0.63;;;;;;;22.80;94.52;100189.50;4966214;28;20229;-73
2022/09/10 10:49:49;;;;;;;2.40;0.93;;;;;;;23.42;91.85;100176.88;4967728;28;20610;-73
2022/09/10 10:52:24;;;;;;;1.30;0.70;;;;;;;23.64;89.77;100175.47;4961871;28;20198;-72
2022/09/10 10:55:06;;;;;;;1.97;1.03;;;;;;;23.67;88.48;100178.75;4965676;28;20193;-74
2022/09/10 10:57:59;;;;;;;2.03;0.80;;;;;;;23.69;87.48;100171.56;4978052;28;20728;-72
2022/09/10 11:00:25;;;;;;;4.17;1.10;;;;;;;23.60;86.71;100164.28;4966970;28;20651;-73
2022/09/10 11:03:14;;;;;;;2.97;1.03;;;;;;;23.51;87.34;100157.78;4965114;28;20265;-74
2022/09/10 11:05:46;;;;;;;1.73;0.70;;;;;;;23.41;87.13;100170.75;4971832;28;20244;-73
2022/09/10 11:08:22;;;;;;;2.00;0.90;;;;;;;23.01;87.04;100169.78;4974386;28;20300;-73
2022/09/10 11:11:16;;;;;;;3.43;0.87;;;;;;;22.58;87.60;100175.94;4964627;28;20193;-72
2022/09/10 11:13:49;;;;;;;1.00;0.63;;;;;;;22.49;88.66;100175.56;4947671;28;20261;-76
2022/09/10 11:16:20;;;;;;;1.77;0.77;;;;;;;22.61;89.07;100179.25;4965501;28;20213;-73
2022/09/10 11:18:48;;;;;;;1.57;0.80;;;;;;;22.77;88.07;100170.38;4967578;28;20212;-73
2022/09/10 11:21:28;;;;;;;2.73;0.83;;;;;;;22.90;86.43;100155.47;4965638;28;20614;-72
2022/09/10 11:24:05;;;;;;;1.50;1.07;;;;;;;23.17;86.66;100161.75;4969459;28;20670;-74
2022/09/10 11:26:40;;;;;;;1.73;0.80;;;;;;;23.31;86.57;100159.09;4968167;28;20288;-73
2022/09/10 11:29:30;;;;;;;3.40;1.00;;;;;;;23.20;83.39;100156.28;4966026;28;20286;-72
2022/09/10 11:32:16;;;;;;;1.97;0.90;;;;;;;22.86;83.74;100166.31;4967609;28;20213;-73
2022/09/10 11:35:02;;;;;;;2.27;1.13;;;;;;;22.64;84.22;100159.72;4970349;28;20218;-74